createdAt,value
2023-03-15T00:01:47.489Z,2.97
2023-03-15T00:04:14.546Z,3.05
2023-03-15T00:06:41.607Z,4.20
2023-03-15T00:09:08.680Z,3.33
2023-03-15T00:11:35.689Z,3.97
2023-03-15T00:14:02.760Z,3.90
2023-03-15T00:16:29.885Z,3.65
2023-03-15T00:18:58.275Z,3.90
2023-03-15T00:21:25.530Z,3.15
2023-03-15T00:23:52.626Z,3.55
2023-03-15T00:26:19.570Z,3.65
2023-03-15T00:28:46.792Z,3.47
2023-03-15T00:31:16.320Z,4.25
2023-03-15T00:33:43.863Z,3.75
2023-03-15T00:36:12.483Z,3.97
2023-03-15T00:38:41.483Z,4.90
2023-03-15T00:41:10.272Z,4.00
2023-03-15T00:43:37.569Z,5.32
2023-03-15T00:46:05.858Z,4.60
2023-03-15T00:48:34.582Z,4.35
2023-03-15T00:51:06.135Z,4.93
2023-03-15T00:53:35.251Z,4.75
2023-03-15T00:56:05.862Z,4.20
2023-03-15T00:58:32.971Z,4.07
2023-03-15T01:01:00.134Z,4.93
2023-03-15T01:03:27.427Z,4.95
2023-03-15T01:05:54.578Z,4.60
2023-03-15T01:08:21.663Z,5.15
2023-03-15T01:10:50.227Z,3.55
2023-03-15T01:13:17.228Z,4.07
2023-03-15T01:15:46.599Z,3.80
2023-03-15T01:18:13.737Z,4.55
2023-03-15T01:20:43.609Z,4.55
2023-03-15T01:23:10.654Z,4.00
2023-03-15T01:25:37.696Z,4.20
2023-03-15T01:28:06.296Z,3.92
2023-03-15T01:30:33.747Z,4.03
2023-03-15T01:33:01.007Z,3.90
2023-03-15T01:35:28.167Z,4.10
2023-03-15T01:37:55.124Z,4.07
2023-03-15T01:40:22.161Z,3.80
2023-03-15T01:42:54.029Z,3.90
2023-03-15T01:45:54.203Z,3.33
2023-03-15T01:48:25.686Z,2.67
2023-03-15T01:50:53.564Z,3.00
2023-03-15T01:53:21.440Z,3.05
2023-03-15T01:55:48.547Z,2.90
2023-03-15T01:58:16.451Z,2.70
2023-03-15T02:00:43.760Z,3.47
2023-03-15T02:03:16.418Z,3.63
2023-03-15T02:05:46.396Z,3.80
2023-03-15T02:08:17.580Z,3.28
2023-03-15T02:10:48.062Z,3.42
2023-03-15T02:13:18.799Z,3.65
2023-03-15T02:15:46.069Z,3.70
2023-03-15T02:18:14.847Z,3.83
2023-03-15T02:20:50.297Z,4.13
2023-03-15T02:23:19.716Z,4.03
2023-03-15T02:25:54.948Z,3.53
2023-03-15T02:28:23.945Z,4.13
2023-03-15T02:30:51.257Z,4.18
2023-03-15T02:33:22.612Z,4.22
2023-03-15T02:35:49.957Z,3.97
2023-03-15T02:38:17.131Z,3.40
2023-03-15T02:40:46.058Z,3.60
2023-03-15T02:43:17.475Z,3.67
2023-03-15T02:45:47.352Z,3.33
2023-03-15T02:48:14.737Z,3.90
2023-03-15T02:50:41.802Z,4.43
2023-03-15T02:53:09.212Z,4.35
2023-03-15T02:55:36.265Z,4.15
2023-03-15T02:58:03.872Z,3.97
2023-03-15T03:00:31.453Z,3.70
2023-03-15T03:02:59.991Z,4.20
2023-03-15T03:05:27.665Z,4.32
2023-03-15T03:07:54.635Z,4.00
2023-03-15T03:10:21.858Z,4.40
2023-03-15T03:12:48.910Z,4.38
2023-03-15T03:15:15.900Z,4.90
2023-03-15T03:17:42.821Z,4.47
2023-03-15T03:20:13.298Z,5.30
2023-03-15T03:22:41.286Z,5.40
2023-03-15T03:25:09.597Z,5.32
2023-03-15T03:27:37.054Z,5.72
2023-03-15T03:30:04.525Z,5.70
2023-03-15T03:32:31.620Z,6.35
2023-03-15T03:34:59.064Z,6.47
2023-03-15T03:37:27.435Z,6.65
2023-03-15T03:39:54.399Z,7.15
2023-03-15T03:42:21.369Z,6.70
2023-03-15T03:44:48.385Z,6.88
2023-03-15T03:47:15.350Z,7.05
2023-03-15T03:49:42.387Z,6.47
2023-03-15T03:52:09.760Z,7.45
2023-03-15T03:54:38.329Z,6.78
2023-03-15T03:57:05.851Z,7.45
2023-03-15T03:59:32.948Z,6.85
2023-03-15T04:02:00.017Z,6.50
2023-03-15T04:04:27.125Z,6.55
2023-03-15T04:06:54.097Z,7.53
2023-03-15T04:09:21.092Z,6.47
2023-03-15T04:11:49.499Z,6.47
2023-03-15T04:14:16.585Z,6.80
2023-03-15T04:16:43.641Z,6.78
2023-03-15T04:19:10.693Z,7.00
2023-03-15T04:21:37.710Z,7.00
2023-03-15T04:24:05.163Z,7.00
2023-03-15T04:26:32.269Z,6.68
2023-03-15T04:29:00.643Z,6.80
2023-03-15T04:31:27.694Z,6.85
2023-03-15T04:33:55.125Z,6.88
2023-03-15T04:36:22.676Z,7.07
2023-03-15T04:38:50.102Z,7.43
2023-03-15T04:41:18.374Z,7.30
2023-03-15T04:43:45.658Z,7.25
2023-03-15T04:46:14.301Z,7.47
2023-03-15T04:48:41.379Z,6.65
2023-03-15T04:51:08.366Z,6.57
2023-03-15T04:53:35.317Z,7.63
2023-03-15T04:56:04.721Z,7.78
2023-03-15T04:58:32.023Z,7.45
2023-03-15T05:00:59.070Z,8.25
2023-03-15T05:03:27.739Z,8.25
2023-03-15T05:05:54.691Z,8.02
2023-03-15T05:08:21.641Z,8.90
2023-03-15T05:10:48.642Z,8.13
2023-03-15T05:13:15.670Z,8.32
2023-03-15T05:15:42.711Z,8.30
2023-03-15T05:18:09.734Z,8.20
2023-03-15T05:20:38.101Z,8.60
2023-03-15T05:23:05.088Z,8.27
2023-03-15T05:25:32.194Z,8.32
2023-03-15T05:27:59.247Z,7.70
2023-03-15T05:30:26.288Z,8.77
2023-03-15T05:32:53.686Z,8.30
2023-03-15T05:35:20.772Z,8.02
2023-03-15T05:37:49.163Z,8.40
2023-03-15T05:40:16.309Z,8.68
2023-03-15T05:42:43.281Z,9.10
2023-03-15T05:45:11.108Z,8.82
2023-03-15T05:47:38.054Z,9.02
2023-03-15T05:50:05.828Z,8.77
2023-03-15T05:52:32.814Z,9.07
2023-03-15T05:55:01.285Z,9.30
2023-03-15T05:57:28.466Z,8.93
2023-03-15T05:59:55.630Z,8.98
2023-03-15T06:02:22.653Z,8.73
2023-03-15T06:04:49.681Z,8.82
2023-03-15T06:07:16.646Z,9.00
2023-03-15T06:09:43.739Z,8.98
2023-03-15T06:12:12.464Z,9.38
2023-03-15T06:14:39.699Z,8.50
2023-03-15T06:17:06.907Z,8.45
2023-03-15T06:19:34.785Z,8.90
2023-03-15T06:22:02.851Z,8.82
2023-03-15T06:24:30.160Z,8.98
2023-03-15T06:26:57.300Z,8.50
2023-03-15T06:29:26.288Z,8.45
2023-03-15T06:31:53.657Z,8.27
2023-03-15T06:34:21.025Z,7.85
2023-03-15T06:36:48.350Z,8.00
2023-03-15T06:39:16.034Z,8.57
2023-03-15T06:41:43.073Z,7.65
2023-03-15T06:44:10.451Z,8.18
2023-03-15T06:46:39.565Z,8.30
2023-03-15T06:49:06.690Z,7.65
2023-03-15T06:51:33.884Z,7.85
2023-03-15T06:54:00.878Z,6.97
2023-03-15T06:56:27.831Z,7.95
2023-03-15T06:58:54.842Z,8.77
2023-03-15T07:01:21.988Z,7.65
2023-03-15T07:03:50.516Z,6.72
2023-03-15T07:06:17.541Z,6.78
2023-03-15T07:08:44.689Z,7.80
2023-03-15T07:11:12.966Z,6.97
2023-03-15T07:13:39.971Z,6.57
2023-03-15T07:16:07.146Z,6.80
2023-03-15T07:18:34.416Z,7.30
2023-03-15T07:21:04.497Z,6.95
2023-03-15T07:23:31.622Z,7.07
2023-03-15T07:25:58.602Z,6.43
2023-03-15T07:28:26.610Z,7.55
2023-03-15T07:30:54.977Z,7.85
2023-03-15T07:33:22.089Z,6.57
2023-03-15T07:35:49.201Z,7.40
2023-03-15T07:38:17.858Z,6.35
2023-03-15T07:40:44.830Z,6.57
2023-03-15T07:43:12.006Z,6.25
2023-03-15T07:45:39.089Z,6.22
2023-03-15T07:48:06.655Z,6.13
2023-03-15T07:50:33.628Z,6.18
2023-03-15T07:53:00.824Z,5.90
2023-03-15T07:55:29.156Z,6.05
2023-03-15T07:57:56.130Z,6.63
2023-03-15T08:00:23.921Z,6.18
2023-03-15T08:02:50.968Z,8.05
2023-03-15T08:05:18.073Z,6.57
2023-03-15T08:07:45.436Z,5.55
2023-03-15T08:10:13.026Z,5.57
2023-03-15T08:12:41.577Z,5.80
2023-03-15T08:15:09.871Z,5.40
2023-03-15T08:17:37.110Z,4.82
2023-03-15T08:20:04.887Z,4.45
2023-03-15T08:22:31.979Z,4.88
2023-03-15T08:24:59.065Z,5.03
2023-03-15T08:27:26.405Z,4.50
2023-03-15T08:29:54.794Z,5.50
2023-03-15T08:32:21.934Z,4.32
2023-03-15T08:34:48.989Z,4.32
2023-03-15T08:37:16.002Z,4.43
2023-03-15T08:39:43.052Z,4.45
2023-03-15T08:42:13.327Z,4.30
2023-03-15T08:44:40.428Z,4.38
2023-03-15T08:47:09.228Z,4.75
2023-03-15T08:49:36.168Z,5.07
2023-03-15T08:52:03.447Z,6.38
2023-03-15T08:54:30.510Z,7.03
2023-03-15T08:56:57.532Z,6.05
2023-03-15T08:59:31.860Z,5.57
2023-03-15T09:02:00.456Z,5.15
2023-03-15T09:04:32.858Z,5.22
2023-03-15T09:07:00.120Z,4.90
2023-03-15T09:09:27.540Z,5.07
2023-03-15T09:11:54.557Z,5.13
2023-03-15T09:14:21.648Z,5.35
2023-03-15T09:16:48.822Z,5.30
2023-03-15T09:19:15.751Z,5.15
2023-03-15T09:21:44.998Z,6.30
2023-03-15T09:24:12.009Z,5.70
2023-03-15T09:26:39.129Z,5.03
2023-03-15T09:29:06.050Z,4.95
2023-03-15T09:31:33.113Z,4.60
2023-03-15T09:34:00.421Z,3.10
2023-03-15T09:36:27.433Z,3.42
2023-03-15T09:38:55.861Z,2.35
2023-03-15T09:41:40.142Z,2.60
2023-03-15T09:44:19.860Z,2.75
2023-03-15T09:47:01.248Z,3.08
2023-03-15T09:49:37.423Z,3.20
2023-03-15T09:52:13.784Z,3.40
2023-03-15T09:54:46.983Z,2.50
2023-03-15T09:57:18.652Z,1.58
2023-03-15T09:59:48.380Z,1.90
2023-03-15T10:02:21.834Z,2.13
2023-03-15T10:04:52.158Z,1.75
2023-03-15T10:07:19.211Z,2.35
2023-03-15T10:09:47.689Z,2.00
2023-03-15T10:12:16.790Z,1.70
2023-03-15T10:15:03.691Z,2.08
2023-03-15T10:17:41.438Z,1.60
2023-03-15T10:20:12.949Z,1.73
2023-03-15T10:22:49.249Z,1.33
2023-03-15T10:25:20.808Z,1.80
2023-03-15T10:27:50.521Z,1.48
2023-03-15T10:30:19.730Z,1.50
2023-03-15T10:32:52.052Z,1.52
2023-03-15T10:35:19.958Z,1.90
2023-03-15T10:37:47.124Z,1.35
2023-03-15T10:40:15.494Z,1.20
2023-03-15T10:42:45.609Z,1.40
2023-03-15T10:45:20.159Z,1.23
2023-03-15T10:47:57.641Z,1.20
2023-03-15T10:50:28.237Z,1.40
2023-03-15T10:52:57.200Z,1.20
2023-03-15T10:55:31.247Z,1.55
2023-03-15T10:58:15.491Z,2.07
2023-03-15T11:00:49.707Z,1.92
2023-03-15T11:03:19.420Z,1.63
2023-03-15T11:05:48.260Z,1.60
2023-03-15T11:08:20.086Z,1.60
2023-03-15T11:10:55.883Z,2.10
2023-03-15T11:13:26.317Z,2.60
2023-03-15T11:15:58.877Z,2.15
2023-03-15T11:18:29.704Z,1.67
2023-03-15T11:20:58.005Z,1.92
2023-03-15T11:23:28.279Z,2.17
2023-03-15T11:25:56.025Z,1.50
2023-03-15T11:28:27.406Z,2.00
2023-03-15T11:30:57.469Z,1.58
2023-03-15T11:33:31.755Z,1.83
2023-03-15T11:36:00.168Z,2.17
2023-03-15T11:38:31.381Z,1.30
2023-03-15T11:41:00.218Z,1.27
2023-03-15T11:43:40.985Z,1.20
2023-03-15T11:46:15.064Z,1.17
2023-03-15T11:48:50.403Z,1.63
2023-03-15T11:51:17.705Z,1.30
2023-03-15T11:53:48.097Z,1.35
2023-03-15T11:56:23.645Z,1.45
2023-03-15T11:59:07.103Z,1.30
2023-03-15T12:01:35.098Z,1.38
2023-03-15T12:04:50.984Z,1.58
2023-03-15T12:07:37.307Z,1.55
2023-03-15T12:10:34.352Z,1.40
2023-03-15T12:13:16.388Z,1.50
2023-03-15T12:15:48.326Z,1.77
2023-03-15T12:18:22.041Z,1.63
2023-03-15T12:21:10.736Z,1.30
2023-03-15T12:23:42.501Z,1.30
2023-03-15T12:26:16.518Z,1.40
2023-03-15T12:28:52.399Z,1.30
2023-03-15T12:31:20.960Z,1.20
2023-03-15T12:33:52.206Z,1.40
2023-03-15T12:36:29.906Z,1.55
2023-03-15T12:39:03.467Z,1.65
2023-03-15T12:41:36.693Z,2.03
2023-03-15T12:44:25.844Z,1.70
2023-03-15T12:46:59.157Z,1.65
2023-03-15T12:49:35.273Z,2.58
2023-03-15T12:52:05.738Z,2.00
2023-03-15T12:54:37.281Z,1.60
2023-03-15T12:57:06.082Z,1.50
2023-03-15T12:59:38.670Z,1.40
2023-03-15T13:02:35.900Z,1.52
2023-03-15T13:05:22.510Z,1.95
2023-03-15T13:07:58.466Z,1.50
2023-03-15T13:11:01.151Z,1.58
2023-03-15T13:13:55.387Z,1.65
2023-03-15T13:16:30.846Z,1.83
2023-03-15T13:19:05.931Z,1.70
2023-03-15T13:21:35.923Z,1.77
2023-03-15T13:24:10.833Z,1.80
2023-03-15T13:29:15.209Z,2.13
2023-03-15T13:31:42.967Z,1.60
2023-03-15T13:34:19.344Z,1.95
2023-03-15T13:36:53.484Z,1.38
2023-03-15T13:39:21.908Z,2.53
2023-03-15T13:41:49.669Z,1.42
2023-03-15T13:44:20.342Z,3.10
2023-03-15T13:46:48.673Z,1.83
2023-03-15T13:49:17.601Z,1.60
2023-03-15T13:51:45.880Z,1.77
2023-03-15T13:54:17.427Z,1.73
2023-03-15T13:56:55.345Z,1.65
2023-03-15T13:59:23.776Z,1.70
2023-03-15T14:01:51.802Z,2.10
2023-03-15T14:04:22.185Z,1.90
2023-03-15T14:06:50.101Z,1.70
2023-03-15T14:09:21.774Z,1.70
2023-03-15T14:12:01.927Z,1.50
2023-03-15T14:14:35.817Z,1.58
2023-03-15T14:17:17.631Z,2.20
2023-03-15T14:19:52.799Z,1.83
2023-03-15T14:22:19.995Z,1.60
2023-03-15T14:24:48.799Z,1.90
2023-03-15T14:27:18.552Z,2.10
2023-03-15T14:29:48.446Z,1.90
2023-03-15T14:32:24.897Z,1.98
2023-03-15T14:35:00.504Z,3.85
2023-03-15T14:37:36.128Z,2.08
2023-03-15T14:40:22.275Z,1.67
2023-03-15T14:42:50.368Z,1.98
2023-03-15T14:45:18.445Z,2.08
2023-03-15T14:48:01.118Z,2.70
2023-03-15T14:50:33.839Z,2.08
2023-03-15T14:53:02.097Z,2.65
2023-03-15T14:55:30.838Z,2.25
2023-03-15T14:57:57.961Z,2.42
2023-03-15T15:00:25.366Z,2.30
2023-03-15T15:02:54.151Z,2.53
2023-03-15T15:05:24.854Z,2.70
2023-03-15T15:07:59.567Z,2.40
2023-03-15T15:10:26.812Z,2.78
2023-03-15T15:13:05.685Z,2.50
2023-03-15T15:15:43.913Z,2.50
2023-03-15T15:18:19.245Z,2.60
2023-03-15T15:20:46.597Z,2.70
2023-03-15T15:23:19.847Z,2.67
2023-03-15T15:25:47.100Z,2.70
2023-03-15T15:28:27.312Z,2.50
2023-03-15T15:31:00.964Z,2.70
2023-03-15T15:33:28.029Z,2.30
2023-03-15T15:35:57.247Z,2.30
2023-03-15T15:38:30.375Z,2.40
2023-03-15T15:40:57.366Z,2.30
2023-03-15T15:43:24.322Z,2.20
2023-03-15T15:45:51.368Z,1.80
2023-03-15T15:48:18.326Z,2.00
2023-03-15T15:50:45.373Z,2.13
2023-03-15T15:53:17.454Z,2.40
2023-03-15T15:55:46.050Z,2.10
2023-03-15T15:58:13.858Z,2.05
2023-03-15T16:00:40.957Z,2.38
2023-03-15T16:03:13.518Z,2.20
2023-03-15T16:05:40.816Z,2.95
2023-03-15T16:08:21.291Z,2.13
2023-03-15T16:10:49.987Z,2.30
2023-03-15T16:13:17.313Z,2.08
2023-03-15T16:15:44.424Z,2.20
2023-03-15T16:18:12.222Z,1.92
2023-03-15T16:20:40.234Z,2.58
2023-03-15T16:23:10.980Z,1.95
2023-03-15T16:25:37.979Z,1.85
2023-03-15T16:28:06.408Z,1.90
2023-03-15T16:30:33.523Z,2.15
2023-03-15T16:33:01.031Z,3.70
2023-03-15T16:35:32.199Z,2.30
2023-03-15T16:38:00.212Z,1.92
2023-03-15T16:40:29.279Z,2.60
2023-03-15T16:42:56.742Z,2.00
2023-03-15T16:45:25.926Z,1.80
2023-03-15T16:47:53.144Z,2.28
2023-03-15T16:50:20.378Z,2.33
2023-03-15T16:52:49.952Z,2.63
2023-03-15T16:55:21.857Z,5.68
2023-03-15T16:57:48.770Z,4.68
2023-03-15T17:00:16.785Z,4.13
2023-03-15T17:02:47.728Z,3.60
2023-03-15T17:05:15.219Z,3.45
2023-03-15T17:07:42.837Z,5.32
2023-03-15T17:10:17.336Z,4.30
2023-03-15T17:12:44.359Z,2.72
2023-03-15T17:15:11.938Z,4.65
2023-03-15T17:17:38.899Z,3.22
2023-03-15T17:20:08.894Z,2.80
2023-03-15T17:22:35.931Z,4.35
2023-03-15T17:25:02.964Z,4.15
2023-03-15T17:27:33.626Z,2.88
2023-03-15T17:30:00.664Z,5.30
2023-03-15T17:32:27.831Z,5.10
2023-03-15T17:34:55.088Z,4.82
2023-03-15T17:37:23.488Z,5.70
2023-03-15T17:39:50.516Z,7.10
2023-03-15T17:42:18.486Z,5.97
2023-03-15T17:44:45.433Z,6.43
2023-03-15T17:47:12.928Z,5.13
2023-03-15T17:49:40.155Z,4.60
2023-03-15T17:52:13.556Z,4.15
2023-03-15T17:54:42.376Z,5.05
2023-03-15T17:57:12.075Z,5.30
2023-03-15T17:59:39.080Z,4.18
2023-03-15T18:02:13.871Z,4.20
2023-03-15T18:04:41.034Z,3.90
2023-03-15T18:07:08.166Z,3.90
2023-03-15T18:09:35.135Z,3.10
2023-03-15T18:12:03.777Z,3.35
2023-03-15T18:14:30.752Z,2.85
2023-03-15T18:16:57.749Z,3.03
2023-03-15T18:19:24.785Z,2.95
2023-03-15T18:21:51.726Z,3.22
2023-03-15T18:24:18.657Z,4.18
2023-03-15T18:26:45.650Z,4.25
2023-03-15T18:29:13.937Z,4.82
2023-03-15T18:31:41.106Z,5.40
2023-03-15T18:34:10.343Z,5.20
2023-03-15T18:36:37.294Z,4.85
2023-03-15T18:39:04.400Z,4.30
2023-03-15T18:41:31.411Z,5.05
2023-03-15T18:43:58.915Z,4.97
2023-03-15T18:46:27.621Z,5.90
2023-03-15T18:48:54.813Z,5.75
2023-03-15T18:51:24.877Z,5.15
2023-03-15T18:53:52.704Z,5.28
2023-03-15T18:56:21.393Z,5.57
2023-03-15T18:58:50.764Z,5.00
2023-03-15T19:01:19.103Z,4.72
2023-03-15T19:03:47.788Z,4.28
2023-03-15T19:06:15.037Z,4.78
2023-03-15T19:08:42.118Z,4.47
2023-03-15T19:11:09.419Z,4.40
2023-03-15T19:13:36.755Z,5.22
2023-03-15T19:16:04.618Z,5.10
2023-03-15T19:18:31.763Z,5.18
2023-03-15T19:21:00.240Z,4.88
2023-03-15T19:23:27.218Z,3.97
2023-03-15T19:25:54.784Z,4.85
2023-03-15T19:28:21.749Z,4.75
2023-03-15T19:30:49.472Z,4.57
2023-03-15T19:33:16.541Z,4.90
2023-03-15T19:35:43.570Z,4.97
2023-03-15T19:38:11.973Z,3.97
2023-03-15T19:40:38.990Z,4.25
2023-03-15T19:43:06.173Z,4.07
2023-03-15T19:45:33.301Z,4.20
2023-03-15T19:48:00.324Z,4.05
2023-03-15T19:50:27.334Z,4.53
2023-03-15T19:52:54.666Z,4.30
2023-03-15T19:55:23.068Z,4.00
2023-03-15T19:57:50.117Z,4.32
2023-03-15T20:00:18.047Z,4.40
2023-03-15T20:02:45.786Z,4.63
2023-03-15T20:05:14.937Z,4.95
2023-03-15T20:07:42.427Z,5.38
2023-03-15T20:10:11.212Z,5.95
2023-03-15T20:12:40.209Z,5.28
2023-03-15T20:15:08.667Z,5.63
2023-03-15T20:17:35.842Z,5.57
2023-03-15T20:20:02.909Z,5.50
2023-03-15T20:22:29.930Z,5.63
2023-03-15T20:24:56.869Z,5.60
2023-03-15T20:27:23.865Z,5.50
2023-03-15T20:29:52.280Z,5.22
2023-03-15T20:32:19.196Z,5.05
2023-03-15T20:34:46.278Z,4.68
2023-03-15T20:37:13.326Z,4.95
2023-03-15T20:39:40.320Z,4.50
2023-03-15T20:42:07.318Z,4.30
2023-03-15T20:44:34.305Z,4.88
2023-03-15T20:47:02.802Z,5.28
2023-03-15T20:49:30.069Z,4.65
2023-03-15T20:51:57.109Z,5.28
2023-03-15T20:54:24.100Z,5.10
2023-03-15T20:56:51.145Z,5.70
2023-03-15T20:59:18.206Z,5.85
2023-03-15T21:01:45.165Z,5.18
2023-03-15T21:04:13.649Z,5.38
2023-03-15T21:06:40.646Z,5.53
2023-03-15T21:09:07.664Z,5.78
2023-03-15T21:11:34.671Z,5.20
2023-03-15T21:14:01.753Z,6.07
2023-03-15T21:16:28.790Z,5.30
2023-03-15T21:18:56.343Z,6.00
2023-03-15T21:21:24.794Z,5.40
2023-03-15T21:23:51.785Z,5.13
2023-03-15T21:26:18.703Z,5.55
2023-03-15T21:28:45.750Z,5.40
2023-03-15T21:31:12.897Z,5.72
2023-03-15T21:33:40.252Z,5.57
2023-03-15T21:36:07.976Z,5.90
2023-03-15T21:38:36.610Z,5.38
2023-03-15T21:41:07.769Z,5.47
2023-03-15T21:43:35.372Z,5.80
2023-03-15T21:46:03.565Z,6.07
2023-03-15T21:48:30.711Z,6.72
2023-03-15T21:50:57.766Z,7.05
2023-03-15T21:53:24.870Z,6.57
2023-03-15T21:55:56.068Z,6.88
2023-03-15T21:58:23.271Z,6.38
2023-03-15T22:00:55.839Z,6.32
2023-03-15T22:03:22.858Z,6.13
2023-03-15T22:05:49.835Z,6.35
2023-03-15T22:08:16.978Z,6.40
2023-03-15T22:10:44.024Z,6.43
2023-03-15T22:13:12.531Z,6.32
2023-03-15T22:15:39.654Z,6.00
2023-03-15T22:18:06.758Z,6.13
2023-03-15T22:20:33.768Z,6.68
2023-03-15T22:23:00.857Z,5.57
2023-03-15T22:25:27.868Z,6.22
2023-03-15T22:27:54.869Z,6.07
2023-03-15T22:30:23.888Z,6.35
2023-03-15T22:32:51.501Z,5.80
2023-03-15T22:35:18.779Z,5.40
2023-03-15T22:37:45.757Z,5.68
2023-03-15T22:40:13.937Z,6.68
2023-03-15T22:42:40.978Z,6.00
2023-03-15T22:45:09.047Z,5.88
2023-03-15T22:47:37.546Z,5.90
2023-03-15T22:50:05.174Z,5.68
2023-03-15T22:52:32.278Z,6.25
2023-03-15T22:54:59.378Z,5.53
2023-03-15T22:57:26.316Z,6.30
2023-03-15T22:59:53.500Z,5.50
2023-03-15T23:02:20.549Z,6.32
2023-03-15T23:04:49.015Z,6.07
2023-03-15T23:07:16.062Z,5.75
2023-03-15T23:09:43.265Z,5.47
2023-03-15T23:12:11.048Z,6.28
2023-03-15T23:14:38.414Z,4.85
2023-03-15T23:17:05.701Z,5.70
2023-03-15T23:19:32.749Z,5.70
2023-03-15T23:22:01.351Z,5.95
2023-03-15T23:24:28.343Z,5.38
2023-03-15T23:26:55.313Z,5.10
2023-03-15T23:29:22.577Z,5.35
2023-03-15T23:31:49.603Z,5.15
2023-03-15T23:34:16.567Z,5.05
2023-03-15T23:36:45.325Z,5.38
2023-03-15T23:39:13.780Z,4.88
2023-03-15T23:41:40.770Z,5.10
2023-03-15T23:44:07.754Z,4.63
2023-03-15T23:46:34.890Z,5.15
2023-03-15T23:49:02.423Z,5.30
2023-03-15T23:51:29.557Z,4.70
2023-03-15T23:53:56.506Z,4.90
2023-03-15T23:56:25.024Z,4.45
2023-03-15T23:58:52.326Z,4.90
